Time;durP1;ratioP1;P1;durP2;ratioP2;P2;SDS_P1;SDS_P2;PMS_P1;PMS_P2;Temp;Humidity;BMP_temperature;BMP_pressure;BME280_temperature;BME280_humidity;BME280_pressure;Samples;Min_cycle;Max_cycle;Signal;HPM_P1;HPM_P2
2024/01/12 00:03:23;;;;;;;22.25;14.05;;;1.10;1.00;;;;;;6208163;23;20180;-89
2024/01/12 00:06:00;;;;;;;23.05;14.15;;;1.10;1.00;;;;;;6195385;23;20195;-87
2024/01/12 00:08:47;;;;;;;24.10;14.23;;;1.10;1.00;;;;;;6195595;23;20565;-89
2024/01/12 00:11:50;;;;;;;24.50;15.73;;;1.00;1.00;;;;;;6204731;23;20199;-88
2024/01/12 00:14:22;;;;;;;30.50;14.23;;;1.00;1.00;;;;;;6197182;23;20179;-90
2024/01/12 00:16:54;;;;;;;26.92;14.57;;;1.00;1.00;;;;;;6194665;23;20200;-90
2024/01/12 00:19:21;;;;;;;22.88;14.65;;;1.00;1.00;;;;;;6197336;23;20187;-89
2024/01/12 00:21:55;;;;;;;27.90;13.95;;;1.60;1.00;;;;;;6207807;23;20634;-89
2024/01/12 00:24:23;;;;;;;20.90;13.20;;;1.10;1.00;;;;;;6206250;23;20144;-88
2024/01/12 00:26:51;;;;;;;22.83;15.10;;;0.90;1.00;;;;;;6201967;23;20192;-89
2024/01/12 00:29:18;;;;;;;24.65;14.70;;;1.00;1.00;;;;;;6194443;23;20565;-89
2024/01/12 00:31:46;;;;;;;26.92;14.15;;;1.00;1.00;;;;;;6197653;23;20219;-89
2024/01/12 00:34:13;;;;;;;25.33;14.85;;;1.00;1.00;;;;;;6197251;23;20176;-89
2024/01/12 00:36:40;;;;;;;26.02;13.65;;;1.10;1.00;;;;;;6193712;23;20246;-89
2024/01/12 00:39:07;;;;;;;23.52;13.38;;;1.00;1.00;;;;;;6195603;23;20238;-89
2024/01/12 00:41:35;;;;;;;21.77;12.15;;;1.00;1.00;;;;;;6201845;23;20171;-89
2024/01/12 00:44:04;;;;;;;23.75;14.80;;;1.00;1.00;;;;;;6193565;23;20206;-89
2024/01/12 00:46:33;;;;;;;22.65;12.38;;;1.00;1.00;;;;;;6192626;23;20261;-89
2024/01/12 00:49:00;;;;;;;23.00;14.13;;;0.90;1.00;;;;;;6192292;23;20192;-89
2024/01/12 00:51:30;;;;;;;21.00;13.00;;;1.00;1.00;;;;;;6194198;23;20187;-89
2024/01/12 00:53:57;;;;;;;19.52;12.68;;;1.00;1.00;;;;;;6199697;23;20176;-91
2024/01/12 00:56:32;;;;;;;22.25;14.02;;;1.00;1.00;;;;;;6199142;23;20200;-90
2024/01/12 00:59:03;;;;;;;24.30;14.05;;;1.00;1.00;;;;;;6197939;23;20160;-91
2024/01/12 01:01:30;;;;;;;29.30;14.07;;;1.00;1.00;;;;;;6202938;23;20163;-89
2024/01/12 01:04:00;;;;;;;24.08;15.50;;;1.20;1.00;;;;;;6204898;23;20175;-89
2024/01/12 01:06:27;;;;;;;21.77;13.68;;;1.70;1.00;;;;;;6213326;23;20203;-88
2024/01/12 01:08:55;;;;;;;22.08;13.27;;;1.10;1.00;;;;;;6215178;23;20170;-89
2024/01/12 01:11:22;;;;;;;23.85;13.48;;;1.10;1.00;;;;;;6214140;23;20202;-88
2024/01/12 01:13:49;;;;;;;26.45;16.15;;;1.10;1.00;;;;;;6214945;23;20231;-88
2024/01/12 01:16:17;;;;;;;26.15;12.32;;;1.30;1.00;;;;;;6214842;23;20196;-88
2024/01/12 01:18:44;;;;;;;21.25;13.32;;;1.20;1.00;;;;;;6207261;23;20225;-90
2024/01/12 01:21:11;;;;;;;22.55;13.05;;;1.20;1.00;;;;;;6193235;23;20194;-89
2024/01/12 01:23:38;;;;;;;22.40;14.95;;;1.20;1.00;;;;;;6193592;23;20191;-89
2024/01/12 01:26:06;;;;;;;19.58;11.75;;;1.10;1.00;;;;;;6195888;23;20211;-88
2024/01/12 01:28:33;;;;;;;22.70;12.48;;;1.10;1.00;;;;;;6194303;23;20179;-88
2024/01/12 01:31:04;;;;;;;23.83;12.85;;;1.00;1.00;;;;;;6195080;23;20566;-88
2024/01/12 01:33:32;;;;;;;19.63;11.70;;;1.10;1.00;;;;;;6194286;23;20563;-88
2024/01/12 01:35:59;;;;;;;20.33;12.73;;;1.00;1.00;;;;;;6202785;23;20229;-86
2024/01/12 01:38:26;;;;;;;21.65;12.95;;;1.00;1.00;;;;;;6214402;23;20236;-88
2024/01/12 01:40:53;;;;;;;22.40;13.75;;;1.00;1.00;;;;;;6213911;23;20160;-89
2024/01/12 01:43:21;;;;;;;17.00;11.30;;;1.00;1.00;;;;;;6202776;23;20199;-89
2024/01/12 01:45:49;;;;;;;20.20;13.05;;;0.90;1.00;;;;;;6199224;23;20251;-88
2024/01/12 01:48:16;;;;;;;19.98;11.88;;;1.40;1.00;;;;;;6195262;23;20175;-88
2024/01/12 01:50:51;;;;;;;28.23;13.43;;;1.00;1.00;;;;;;6207944;23;20196;-89
2024/01/12 01:53:18;;;;;;;18.48;12.90;;;0.90;1.00;;;;;;6206341;23;20614;-89
2024/01/12 01:55:46;;;;;;;20.63;12.90;;;0.90;1.00;;;;;;6209000;23;20246;-89
2024/01/12 01:58:15;;;;;;;19.98;12.15;;;1.40;1.00;;;;;;6194093;23;20259;-89
2024/01/12 02:00:42;;;;;;;23.25;11.98;;;0.90;1.00;;;;;;6194088;23;20178;-89
2024/01/12 02:03:10;;;;;;;17.10;10.23;;;1.60;1.00;;;;;;6193863;23;20175;-89
2024/01/12 02:05:47;;;;;;;22.95;13.13;;;1.00;1.00;;;;;;6193513;23;20223;-88
2024/01/12 03:34:56;;;;;;;16.35;11.43;;;1.00;1.00;;;;;;6121746;23;20167;-90
2024/01/12 05:37:43;;;;;;;21.85;12.27;;;0.70;1.00;;;;;;6141652;23;20165;-89
2024/01/12 05:57:28;;;;;;;13.82;10.23;;;1.00;1.00;;;;;;6103143;23;20186;-91
2024/01/12 06:24:13;;;;;;;;;;;;;;;;;;;;;
2024/01/12 06:43:28;;;;;;;20.02;11.25;;;0.50;1.00;;;;;;6080137;23;20179;-90
2024/01/12 06:46:46;;;;;;;17.23;10.55;;;0.40;1.00;;;;;;6074655;23;20182;-91
2024/01/12 06:50:21;;;;;;;17.65;9.93;;;0.50;1.00;;;;;;6076687;23;20233;-91
2024/01/12 06:57:01;;;;;;;21.08;12.32;;;0.40;1.00;;;;;;6036633;23;20607;-90
2024/01/12 07:06:16;;;;;;;25.45;13.40;;;0.40;1.00;;;;;;5987512;24;20179;-90
2024/01/12 07:08:43;;;;;;;24.67;13.02;;;0.30;1.00;;;;;;5989856;23;20184;-85
2024/01/12 07:11:10;;;;;;;19.40;11.45;;;0.30;1.00;;;;;;6052349;23;20199;-86
2024/01/12 07:13:37;;;;;;;21.90;13.15;;;0.20;1.00;;;;;;6090136;23;20182;-85
2024/01/12 07:16:06;;;;;;;43.97;24.10;;;0.10;1.00;;;;;;6121581;23;20205;-88
2024/01/12 07:18:33;;;;;;;23.25;14.02;;;0.10;1.00;;;;;;6115567;23;20229;-88
2024/01/12 07:21:03;;;;;;;21.15;12.40;;;0.10;1.00;;;;;;6119311;23;20182;-88
2024/01/12 07:23:31;;;;;;;22.13;15.02;;;0.10;1.00;;;;;;6106365;23;20218;-87
2024/01/12 07:26:00;;;;;;;17.85;11.55;;;0.10;1.00;;;;;;6105420;23;20196;-87
2024/01/12 07:28:31;;;;;;;16.63;9.80;;;0.10;1.00;;;;;;6103906;23;20209;-88
2024/01/12 07:31:04;;;;;;;21.77;13.13;;;0.10;1.00;;;;;;6103967;23;20169;-88
2024/01/12 07:33:54;;;;;;;19.40;12.45;;;0.00;1.00;;;;;;6107970;23;20182;-88
2024/01/12 07:36:47;;;;;;;21.30;12.00;;;0.10;1.00;;;;;;6104219;23;20158;-89
2024/01/12 07:39:54;;;;;;;22.88;13.20;;;0.10;1.00;;;;;;6103401;23;20198;-89
2024/01/12 07:43:15;;;;;;;19.58;11.13;;;0.10;1.00;;;;;;6105135;23;20166;-91
2024/01/12 07:45:43;;;;;;;22.55;11.50;;;0.20;1.00;;;;;;6089016;23;20173;-88
2024/01/12 07:48:17;;;;;;;18.30;9.20;;;0.10;1.00;;;;;;6105791;23;20198;-88
2024/01/12 07:50:48;;;;;;;14.77;8.85;;;0.00;1.00;;;;;;6106672;23;20500;-88
2024/01/12 07:53:23;;;;;;;15.95;10.20;;;0.10;1.00;;;;;;6105057;23;20260;-88
2024/01/12 08:14:27;;;;;;;14.48;8.00;;;0.20;1.00;;;;;;6163638;23;20168;-91
2024/01/12 08:20:30;;;;;;;15.38;7.47;;;0.20;1.00;;;;;;6004492;23;20484;-85
2024/01/12 08:22:58;;;;;;;17.00;7.65;;;0.30;1.00;;;;;;6132788;23;20248;-88
2024/01/12 08:25:25;;;;;;;14.05;9.13;;;0.30;1.00;;;;;;6133004;23;20212;-86
2024/01/12 08:27:52;;;;;;;12.60;8.20;;;0.40;1.00;;;;;;6132227;23;20208;-85
2024/01/12 08:30:20;;;;;;;12.40;7.55;;;0.30;1.00;;;;;;6135454;23;20201;-85
2024/01/12 08:32:47;;;;;;;14.48;8.02;;;0.30;1.00;;;;;;6136682;23;20538;-85
2024/01/12 08:35:14;;;;;;;12.80;7.82;;;0.40;1.00;;;;;;6143824;23;20181;-85
2024/01/12 08:37:41;;;;;;;12.50;8.13;;;0.40;1.00;;;;;;6142731;23;20168;-84
2024/01/12 08:40:09;;;;;;;15.23;10.20;;;0.30;1.00;;;;;;6155896;23;20192;-83
2024/01/12 08:42:37;;;;;;;10.95;7.00;;;0.40;1.00;;;;;;6144141;23;20216;-85
2024/01/12 08:45:05;;;;;;;12.00;7.22;;;0.50;1.00;;;;;;6134826;23;20220;-85
2024/01/12 08:47:32;;;;;;;12.30;8.35;;;0.50;1.00;;;;;;6134460;23;20177;-85
2024/01/12 08:49:59;;;;;;;11.48;6.97;;;0.60;1.00;;;;;;6139771;23;20207;-84
2024/01/12 08:52:25;;;;;;;10.02;7.05;;;0.60;99.90;;;;;;6139395;23;20233;-84
2024/01/12 08:54:52;;;;;;;10.98;7.18;;;0.60;99.90;;;;;;6134652;23;20177;-85
2024/01/12 08:57:21;;;;;;;9.98;6.68;;;0.50;99.90;;;;;;6141414;23;20516;-85
2024/01/12 08:59:47;;;;;;;11.38;7.60;;;0.40;99.90;;;;;;6136923;23;20648;-85
2024/01/12 09:02:14;;;;;;;14.95;9.23;;;0.40;99.90;;;;;;6134636;23;20235;-85
2024/01/12 09:04:41;;;;;;;13.38;8.18;;;0.50;1.00;;;;;;6134512;23;20188;-86
2024/01/12 09:07:08;;;;;;;12.35;8.23;;;0.60;1.00;;;;;;6136924;23;20232;-86
2024/01/12 09:09:36;;;;;;;10.35;6.40;;;0.60;1.00;;;;;;6139146;23;20200;-85
2024/01/12 09:12:02;;;;;;;10.73;7.38;;;0.60;1.00;;;;;;6138310;23;20228;-85
2024/01/12 09:14:31;;;;;;;11.60;7.93;;;0.70;1.00;;;;;;6137465;23;20205;-85
2024/01/12 09:16:58;;;;;;;12.13;7.30;;;0.60;99.90;;;;;;6136584;23;20216;-84
2024/01/12 09:19:24;;;;;;;10.30;7.00;;;0.50;99.90;;;;;;6138082;23;20204;-84
2024/01/12 09:21:51;;;;;;;9.65;7.47;;;0.50;99.90;;;;;;6136989;23;20259;-84
2024/01/12 09:24:18;;;;;;;13.38;6.85;;;0.40;99.90;;;;;;6136208;23;20181;-86
2024/01/12 09:26:45;;;;;;;10.98;7.18;;;0.50;99.90;;;;;;6136596;23;20549;-85
2024/01/12 09:29:12;;;;;;;12.02;8.05;;;0.40;1.00;;;;;;6133627;23;20181;-85
2024/01/12 09:31:40;;;;;;;12.90;7.65;;;0.40;1.00;;;;;;6133027;23;20197;-85
2024/01/12 09:34:07;;;;;;;9.98;7.13;;;0.50;1.00;;;;;;6135955;23;20207;-86
2024/01/12 09:36:33;;;;;;;12.60;6.55;;;0.50;1.00;;;;;;6147426;23;20165;-84
2024/01/12 09:39:00;;;;;;;10.18;6.95;;;0.50;1.00;;;;;;6136132;23;20181;-85
2024/01/12 09:41:38;;;;;;;12.23;7.72;;;0.50;1.00;;;;;;6136046;23;20249;-84
2024/01/12 09:44:08;;;;;;;15.27;9.77;;;0.40;1.00;;;;;;6142665;23;20169;-84
2024/01/12 09:46:42;;;;;;;9.48;7.25;;;0.50;1.00;;;;;;6141839;23;20181;-85
2024/01/12 09:49:10;;;;;;;11.27;6.70;;;0.40;1.00;;;;;;6141000;23;20172;-85
2024/01/12 09:51:37;;;;;;;12.77;7.97;;;0.50;1.00;;;;;;6141965;23;20230;-84
2024/01/12 09:54:04;;;;;;;10.85;6.45;;;0.50;1.00;;;;;;6153322;23;20209;-83
2024/01/12 09:56:31;;;;;;;9.85;6.28;;;0.70;1.00;;;;;;6145994;23;20199;-84
2024/01/12 09:58:58;;;;;;;11.45;6.85;;;0.70;1.00;;;;;;6140836;23;20236;-85
2024/01/12 10:01:26;;;;;;;12.05;7.63;;;0.70;1.00;;;;;;6149408;23;20200;-84
2024/01/12 10:03:52;;;;;;;12.60;7.40;;;0.60;99.90;;;;;;6148824;23;20184;-84
2024/01/12 10:06:21;;;;;;;10.02;6.90;;;0.60;99.90;;;;;;6142244;23;20176;-85
2024/01/12 10:08:48;;;;;;;12.60;7.35;;;0.60;99.90;;;;;;6138668;23;20198;-85
2024/01/12 10:11:15;;;;;;;11.45;7.15;;;0.60;99.90;;;;;;6137802;23;20229;-84
2024/01/12 10:13:42;;;;;;;6.88;6.03;;;0.60;1.00;;;;;;6141401;23;20216;-85
2024/01/12 10:16:09;;;;;;;9.75;7.15;;;0.60;1.00;;;;;;6140958;23;20177;-84
2024/01/12 10:18:35;;;;;;;8.63;6.47;;;0.70;1.00;;;;;;6139783;23;20552;-85
2024/01/12 10:21:02;;;;;;;12.27;7.78;;;0.70;1.00;;;;;;6137590;23;20209;-85
2024/01/12 10:23:31;;;;;;;8.80;5.95;;;0.70;99.90;;;;;;6138172;23;20201;-85
2024/01/12 10:25:59;;;;;;;7.22;6.32;;;0.80;99.90;;;;;;6139471;23;20225;-86
2024/01/12 10:28:28;;;;;;;8.88;5.70;;;0.80;99.90;;;;;;6134279;23;20235;-85
2024/01/12 10:30:55;;;;;;;6.65;5.68;;;0.80;99.90;;;;;;6132319;23;20572;-86
2024/01/12 10:33:22;;;;;;;9.23;6.15;;;0.90;99.90;;;;;;6133260;23;20598;-85
2024/01/12 10:35:54;;;;;;;7.72;5.65;;;0.90;99.90;;;;;;6132679;23;20220;-85
2024/01/12 10:38:22;;;;;;;7.90;6.43;;;0.90;99.90;;;;;;6138348;23;20172;-84
2024/01/12 10:40:51;;;;;;;10.50;7.00;;;0.70;99.90;;;;;;6142377;23;20676;-85
2024/01/12 10:43:20;;;;;;;7.53;5.72;;;0.60;99.90;;;;;;6137577;23;20204;-85
2024/01/12 10:45:51;;;;;;;7.68;5.30;;;0.50;99.90;;;;;;6138222;23;20183;-84
2024/01/12 10:48:24;;;;;;;10.20;6.13;;;0.60;99.90;;;;;;6141267;23;20168;-84
2024/01/12 10:50:58;;;;;;;9.98;6.28;;;0.60;99.90;;;;;;6150116;23;20208;-85
2024/01/12 10:53:32;;;;;;;10.02;6.15;;;0.50;99.90;;;;;;6151901;23;20173;-85
2024/01/12 10:56:01;;;;;;;9.65;6.82;;;0.60;99.90;;;;;;6151144;23;20161;-85
2024/01/12 10:58:29;;;;;;;10.00;6.50;;;0.60;99.90;;;;;;6148284;23;20177;-86
2024/01/12 11:00:56;;;;;;;11.73;7.10;;;0.60;99.90;;;;;;6142138;23;20181;-85
2024/01/12 11:03:24;;;;;;;13.50;7.75;;;0.70;99.90;;;;;;6145134;23;20227;-85
2024/01/12 11:05:51;;;;;;;14.10;9.10;;;0.70;99.90;;;;;;6144741;23;20208;-86
2024/01/12 11:08:21;;;;;;;16.65;7.50;;;0.50;99.90;;;;;;6143125;23;20180;-86
2024/01/12 11:10:52;;;;;;;14.95;9.30;;;0.50;99.90;;;;;;6142532;23;20217;-85
2024/01/12 11:13:21;;;;;;;16.00;10.05;;;0.50;1.00;;;;;;6142409;23;20272;-85
2024/01/12 11:15:51;;;;;;;14.25;9.52;;;0.50;1.00;;;;;;6142054;23;20505;-85
2024/01/12 11:18:19;;;;;;;17.10;9.65;;;0.50;1.00;;;;;;6142627;23;20252;-85
2024/01/12 11:20:46;;;;;;;14.90;9.45;;;0.60;1.00;;;;;;6138281;23;20556;-84
2024/01/12 11:23:13;;;;;;;11.82;8.85;;;0.60;1.00;;;;;;6137279;23;20180;-85
2024/01/12 11:25:44;;;;;;;15.25;10.45;;;0.50;1.00;;;;;;6144676;23;20208;-85
2024/01/12 11:28:10;;;;;;;13.30;10.13;;;0.50;1.00;;;;;;6147819;23;20161;-83
2024/01/12 11:30:42;;;;;;;15.88;9.40;;;0.50;1.00;;;;;;6146276;23;20536;-84
2024/01/12 11:33:09;;;;;;;12.25;7.65;;;0.50;1.00;;;;;;6144038;23;20187;-86
2024/01/12 11:35:39;;;;;;;16.73;10.75;;;0.40;1.00;;;;;;6143981;23;20168;-84
2024/01/12 11:38:08;;;;;;;16.30;9.68;;;0.30;1.00;;;;;;6152757;23;20169;-83
2024/01/12 11:40:37;;;;;;;16.02;10.75;;;0.30;1.00;;;;;;6153168;23;20208;-85
2024/01/12 11:43:05;;;;;;;12.85;8.38;;;0.30;1.00;;;;;;6152854;23;20184;-84
2024/01/12 11:45:33;;;;;;;21.85;11.98;;;0.40;1.00;;;;;;6141288;23;20177;-85
2024/01/12 11:48:04;;;;;;;11.65;7.72;;;0.40;1.00;;;;;;6141574;23;20181;-84
2024/01/12 11:50:31;;;;;;;12.05;7.32;;;0.50;1.00;;;;;;6139789;23;20535;-84
2024/01/12 11:52:59;;;;;;;15.00;8.55;;;0.60;1.00;;;;;;6139219;23;20239;-85
2024/01/12 11:55:26;;;;;;;10.88;8.05;;;0.70;1.00;;;;;;6138680;23;20205;-85
2024/01/12 11:57:53;;;;;;;13.63;9.98;;;0.60;99.90;;;;;;6139525;23;20188;-85
2024/01/12 12:00:21;;;;;;;12.05;8.85;;;0.50;99.90;;;;;;6138938;23;20248;-84
2024/01/12 12:02:49;;;;;;;13.15;9.05;;;0.50;99.90;;;;;;6138230;23;20200;-85
2024/01/12 12:05:17;;;;;;;15.00;9.75;;;0.60;99.90;;;;;;6147296;23;20467;-85
2024/01/12 12:07:46;;;;;;;11.38;9.35;;;0.70;99.90;;;;;;6138073;23;20192;-84
2024/01/12 12:10:13;;;;;;;13.15;9.48;;;0.60;99.90;;;;;;6138467;23;20207;-85
2024/01/12 12:12:40;;;;;;;13.75;9.25;;;0.50;99.90;;;;;;6138189;23;20204;-85
2024/01/12 12:15:10;;;;;;;13.10;9.85;;;0.60;99.90;;;;;;6138840;23;20219;-87
2024/01/12 12:17:38;;;;;;;16.30;8.70;;;0.50;99.90;;;;;;6141110;23;20552;-85
2024/01/12 12:20:10;;;;;;;13.40;9.27;;;0.50;99.90;;;;;;6151768;23;20193;-85
2024/01/12 12:22:39;;;;;;;14.43;8.63;;;0.50;99.90;;;;;;6149311;23;20180;-85
2024/01/12 12:25:09;;;;;;;17.23;10.10;;;0.40;99.90;;;;;;6151134;23;20204;-85
2024/01/12 12:27:36;;;;;;;17.38;8.35;;;0.40;99.90;;;;;;6154608;23;20219;-86
2024/01/12 12:30:05;;;;;;;16.05;9.15;;;0.30;99.90;;;;;;6155817;23;20228;-83
2024/01/12 12:32:33;;;;;;;20.20;10.57;;;0.30;1.00;;;;;;6155555;23;20157;-84
2024/01/12 12:34:59;;;;;;;17.17;11.23;;;0.30;1.00;;;;;;6155390;23;20161;-82
2024/01/12 12:37:26;;;;;;;20.88;10.60;;;0.30;1.00;;;;;;6155640;23;20162;-83
2024/01/12 12:39:55;;;;;;;17.98;11.10;;;0.20;1.00;;;;;;6155718;23;20153;-83
2024/01/12 12:42:22;;;;;;;14.32;8.85;;;0.10;1.00;;;;;;6155406;23;20188;-83
2024/01/12 12:44:51;;;;;;;20.95;10.05;;;0.10;1.00;;;;;;6152578;23;20229;-84
2024/01/12 12:47:18;;;;;;;14.18;10.77;;;0.20;1.00;;;;;;6143374;23;20241;-85
2024/01/12 12:49:45;;;;;;;15.88;9.50;;;0.10;1.00;;;;;;6138214;23;20192;-85
2024/01/12 12:52:12;;;;;;;18.73;10.75;;;0.10;1.00;;;;;;6138544;23;20528;-86
2024/01/12 12:54:39;;;;;;;16.35;10.43;;;0.00;1.00;;;;;;6135894;23;20196;-84
2024/01/12 12:57:07;;;;;;;16.77;9.55;;;0.10;1.00;;;;;;6135913;23;20181;-85
2024/01/12 12:59:35;;;;;;;17.33;9.82;;;0.00;1.00;;;;;;6138374;23;20190;-85
2024/01/12 13:02:02;;;;;;;19.83;9.85;;;0.00;1.00;;;;;;6139352;23;20225;-85
2024/01/12 13:04:30;;;;;;;18.85;8.57;;;0.00;1.00;;;;;;6136186;23;20224;-86
2024/01/12 13:06:57;;;;;;;17.65;9.93;;;-0.10;1.00;;;;;;6138238;23;20264;-85
2024/01/12 13:09:25;;;;;;;18.17;9.75;;;-0.10;1.00;;;;;;6143347;23;20200;-84
2024/01/12 13:11:53;;;;;;;19.75;10.13;;;0.00;1.00;;;;;;6142864;23;20292;-84
2024/01/12 13:14:21;;;;;;;15.25;9.23;;;-0.10;1.00;;;;;;6142023;23;20216;-86
2024/01/12 13:16:49;;;;;;;17.40;9.52;;;0.00;1.00;;;;;;6139326;23;20181;-84
2024/01/12 13:19:16;;;;;;;15.95;10.55;;;-0.10;1.00;;;;;;6139524;23;20192;-85
2024/01/12 13:21:43;;;;;;;18.55;9.85;;;-0.10;1.00;;;;;;6139194;23;20215;-85
2024/01/12 13:24:10;;;;;;;15.07;9.75;;;0.00;1.00;;;;;;6145665;23;20229;-85
2024/01/12 13:26:37;;;;;;;20.65;10.45;;;0.00;1.00;;;;;;6150402;23;20181;-85
2024/01/12 13:29:04;;;;;;;22.23;11.25;;;-0.10;1.00;;;;;;6152808;23;20188;-85
2024/01/12 13:31:32;;;;;;;18.15;10.05;;;-0.10;1.00;;;;;;6139770;23;20675;-85
2024/01/12 13:33:59;;;;;;;18.73;10.35;;;-0.10;1.00;;;;;;6142108;23;20201;-85
2024/01/12 13:36:26;;;;;;;16.10;9.13;;;-0.10;1.00;;;;;;6142693;23;20575;-85
2024/01/12 13:38:53;;;;;;;18.40;11.80;;;-0.10;1.00;;;;;;6141540;23;20566;-85
2024/01/12 13:41:21;;;;;;;21.98;12.57;;;-0.10;1.00;;;;;;6143957;23;20201;-86
2024/01/12 13:43:48;;;;;;;20.40;11.60;;;-0.10;1.00;;;;;;6140796;23;20178;-85
2024/01/12 13:46:18;;;;;;;19.38;11.05;;;-0.10;1.00;;;;;;6137443;23;20189;-85
2024/01/12 13:48:46;;;;;;;19.25;11.40;;;-0.20;1.00;;;;;;6138880;23;20513;-85
2024/01/12 13:51:15;;;;;;;20.70;11.57;;;-0.20;1.00;;;;;;6139376;23;20491;-86
2024/01/12 13:53:43;;;;;;;22.60;12.20;;;-0.10;1.00;;;;;;6146974;23;20282;-84
2024/01/12 13:56:09;;;;;;;22.65;12.23;;;0.00;1.00;;;;;;6150822;23;20177;-85
2024/01/12 13:58:37;;;;;;;24.60;11.40;;;0.00;1.00;;;;;;6142784;23;20215;-86
2024/01/12 14:01:05;;;;;;;16.02;10.70;;;0.00;1.00;;;;;;6139868;23;20224;-85
2024/01/12 14:03:33;;;;;;;16.60;10.27;;;-0.10;1.00;;;;;;6140835;23;20177;-86
2024/01/12 14:06:02;;;;;;;18.42;9.15;;;-0.10;1.00;;;;;;6140184;23;20212;-85
2024/01/12 14:08:29;;;;;;;15.77;8.05;;;-0.10;1.00;;;;;;6139754;23;20181;-84
2024/01/12 14:10:56;;;;;;;23.25;12.45;;;-0.20;1.00;;;;;;6138263;23;20268;-84
2024/01/12 14:13:23;;;;;;;18.70;10.32;;;-0.20;1.00;;;;;;6136471;23;20284;-86
2024/01/12 14:15:50;;;;;;;15.77;9.48;;;-0.10;1.00;;;;;;6136230;23;20188;-85
2024/01/12 14:18:17;;;;;;;18.45;10.55;;;0.00;1.00;;;;;;6151773;23;20189;-84
2024/01/12 14:20:45;;;;;;;18.35;10.13;;;0.00;1.00;;;;;;6152487;23;20204;-84
2024/01/12 14:23:13;;;;;;;18.83;10.60;;;0.00;1.00;;;;;;6153739;23;20169;-85
2024/01/12 14:25:40;;;;;;;22.20;10.77;;;0.00;1.00;;;;;;6153043;23;20172;-86
2024/01/12 14:28:07;;;;;;;19.42;10.10;;;0.10;1.00;;;;;;6144106;23;20639;-85
2024/01/12 14:30:34;;;;;;;19.85;10.82;;;0.10;1.00;;;;;;6144129;23;20232;-86
2024/01/12 14:33:03;;;;;;;23.48;11.70;;;0.20;1.00;;;;;;6152949;23;20177;-85
2024/01/12 14:35:30;;;;;;;16.92;11.02;;;0.00;1.00;;;;;;6152507;23;20189;-84
2024/01/12 14:37:57;;;;;;;17.90;11.02;;;0.10;1.00;;;;;;6151478;23;20210;-85
2024/01/12 14:40:25;;;;;;;19.35;9.90;;;0.10;1.00;;;;;;6146100;23;20197;-84
2024/01/12 14:42:52;;;;;;;21.48;10.77;;;0.00;1.00;;;;;;6143762;23;20200;-86
2024/01/12 14:45:19;;;;;;;20.25;12.00;;;-0.10;99.90;;;;;;6140510;23;20181;-86
2024/01/12 14:47:48;;;;;;;22.35;11.60;;;-0.10;99.90;;;;;;6136490;23;20220;-89
2024/01/12 14:50:22;;;;;;;17.48;11.13;;;0.10;99.90;;;;;;6133815;23;20220;-89
2024/01/12 14:53:16;;;;;;;23.27;12.23;;;-0.10;99.90;;;;;;6134160;23;20173;-89
2024/01/12 14:55:51;;;;;;;22.20;12.57;;;-0.10;99.90;;;;;;6133330;23;20177;-88
2024/01/12 14:58:18;;;;;;;24.88;13.18;;;0.00;99.90;;;;;;6145009;23;20224;-90
2024/01/12 15:00:52;;;;;;;21.30;12.70;;;0.10;99.90;;;;;;6137102;23;20283;-89
2024/01/12 15:03:30;;;;;;;23.48;13.52;;;0.10;99.90;;;;;;6135774;23;20153;-91
2024/01/12 15:06:01;;;;;;;24.45;14.63;;;0.50;99.90;;;;;;6137540;23;20221;-90
2024/01/12 15:08:35;;;;;;;27.67;14.27;;;-0.10;99.90;;;;;;6152903;23;20197;-89
2024/01/12 15:11:27;;;;;;;26.38;15.70;;;-0.30;99.90;;;;;;6153454;23;20167;-88
2024/01/12 15:13:57;;;;;;;23.15;13.30;;;-0.10;99.90;;;;;;6153765;23;20209;-89
2024/01/12 15:16:36;;;;;;;23.60;14.18;;;-0.10;99.90;;;;;;6153380;23;20443;-90
2024/01/12 15:19:06;;;;;;;23.20;13.00;;;-0.10;99.90;;;;;;6153652;23;20181;-89
2024/01/12 15:21:45;;;;;;;23.35;12.95;;;-0.20;99.90;;;;;;6136512;23;20169;-90
2024/01/12 15:24:27;;;;;;;23.58;13.57;;;0.00;99.90;;;;;;6134731;23;20175;-89
2024/01/12 15:26:56;;;;;;;23.95;14.27;;;-0.10;1.00;;;;;;6136466;23;20177;-90
2024/01/12 15:29:29;;;;;;;22.13;14.10;;;-0.20;99.90;;;;;;6133982;23;20200;-89
2024/01/12 15:35:29;;;;;;;23.25;13.70;;;0.10;1.00;;;;;;6142295;23;20196;-92
2024/01/12 15:38:53;;;;;;;25.25;14.35;;;0.20;1.00;;;;;;6136607;23;20207;-90
2024/01/12 15:41:29;;;;;;;29.33;14.40;;;0.30;1.00;;;;;;6136069;23;20252;-87
2024/01/12 15:44:33;;;;;;;21.38;14.05;;;0.30;99.90;;;;;;6153517;23;20180;-88
2024/01/12 15:47:34;;;;;;;23.77;14.93;;;0.20;99.90;;;;;;6147751;23;20184;-89
2024/01/12 15:50:08;;;;;;;27.17;13.70;;;0.00;99.90;;;;;;6134240;23;20236;-88
2024/01/12 15:52:35;;;;;;;32.60;16.45;;;-0.10;99.90;;;;;;6133989;23;20165;-87
2024/01/12 15:55:03;;;;;;;24.98;13.52;;;-0.10;99.90;;;;;;6134347;23;20211;-88
2024/01/12 15:57:34;;;;;;;29.02;14.23;;;-0.10;99.90;;;;;;6139424;23;20206;-88
2024/01/12 16:00:06;;;;;;;31.63;15.35;;;0.00;99.90;;;;;;6146378;23;20196;-88
2024/01/12 16:02:36;;;;;;;21.65;14.52;;;0.00;99.90;;;;;;6151282;23;20157;-89
2024/01/12 16:05:04;;;;;;;29.60;14.10;;;0.00;99.90;;;;;;6141415;23;20177;-89
2024/01/12 16:07:31;;;;;;;28.45;14.10;;;0.00;99.90;;;;;;6133387;23;20179;-89
2024/01/12 16:09:58;;;;;;;21.33;13.18;;;0.30;99.90;;;;;;6133041;23;20169;-89
2024/01/12 16:12:30;;;;;;;30.77;15.10;;;-0.10;99.90;;;;;;6131823;23;20576;-89
2024/01/12 16:15:12;;;;;;;28.67;14.23;;;0.30;99.90;;;;;;6139177;23;20200;-89
2024/01/12 16:17:40;;;;;;;26.77;14.68;;;-0.10;99.90;;;;;;6141169;23;20208;-89
2024/01/12 16:20:13;;;;;;;30.65;16.48;;;0.70;99.90;;;;;;6134030;23;20180;-89
2024/01/12 16:22:42;;;;;;;29.65;16.17;;;-0.10;99.90;;;;;;6136661;23;20154;-89
2024/01/12 16:25:14;;;;;;;32.97;17.75;;;-0.10;1.00;;;;;;6132991;23;20180;-89
2024/01/12 16:27:47;;;;;;;30.95;16.17;;;-0.10;1.00;;;;;;6131494;23;20189;-90
2024/01/12 16:30:18;;;;;;;34.78;18.55;;;0.40;1.00;;;;;;6131591;23;20177;-89
2024/01/12 16:32:52;;;;;;;38.90;19.00;;;-0.20;1.00;;;;;;6131228;23;20620;-89
2024/01/12 16:35:19;;;;;;;34.83;17.52;;;-0.20;1.00;;;;;;6132274;23;20204;-89
2024/01/12 16:37:46;;;;;;;32.28;17.45;;;0.40;1.00;;;;;;6135868;23;20185;-87
2024/01/12 16:40:13;;;;;;;34.47;18.83;;;0.20;1.00;;;;;;6135467;23;20703;-87
2024/01/12 16:42:40;;;;;;;35.45;17.10;;;-0.10;1.00;;;;;;6133862;23;20189;-87
2024/01/12 16:45:09;;;;;;;31.25;16.85;;;-0.10;1.00;;;;;;6133827;23;20225;-87
2024/01/12 16:47:40;;;;;;;34.00;18.85;;;-0.10;1.00;;;;;;6135644;23;20209;-88
2024/01/12 16:50:11;;;;;;;35.13;16.15;;;-0.10;1.00;;;;;;6137227;23;20235;-89
2024/01/12 16:52:40;;;;;;;41.30;19.45;;;-0.20;1.00;;;;;;6133031;23;20162;-88
2024/01/12 16:55:08;;;;;;;26.67;16.00;;;0.40;1.00;;;;;;6134710;23;20196;-88
2024/01/12 16:57:47;;;;;;;31.08;15.82;;;-0.10;1.00;;;;;;6134851;23;20590;-89
2024/01/12 17:00:23;;;;;;;38.33;18.40;;;-0.10;1.00;;;;;;6138393;23;20165;-91
2024/01/12 17:03:05;;;;;;;30.45;16.08;;;-0.10;1.00;;;;;;6139950;23;20192;-91
2024/01/12 17:06:01;;;;;;;28.85;16.35;;;0.10;1.00;;;;;;6138108;23;20236;-91
2024/01/12 17:08:43;;;;;;;36.15;17.63;;;-0.10;1.00;;;;;;6150581;23;20181;-89
2024/01/12 17:11:11;;;;;;;37.85;17.52;;;-0.10;1.00;;;;;;6154940;23;20161;-89
2024/01/12 17:13:38;;;;;;;36.10;18.50;;;-0.10;1.00;;;;;;6139310;23;20161;-88
2024/01/12 17:16:05;;;;;;;36.13;19.20;;;0.30;1.00;;;;;;6134375;23;20227;-90
2024/01/12 17:18:33;;;;;;;32.85;19.73;;;0.00;1.00;;;;;;6139993;23;20193;-89
2024/01/12 17:21:03;;;;;;;40.38;17.95;;;0.10;1.00;;;;;;6134271;23;20173;-89
2024/01/12 17:23:30;;;;;;;34.08;18.13;;;0.10;1.00;;;;;;6133543;23;20180;-87
2024/01/12 17:25:57;;;;;;;41.13;19.65;;;0.10;1.00;;;;;;6133350;23;20651;-89
2024/01/12 17:28:25;;;;;;;34.33;18.90;;;0.10;1.00;;;;;;6135160;23;20236;-89
2024/01/12 17:30:52;;;;;;;38.15;18.48;;;0.10;1.00;;;;;;6133542;23;20177;-89
2024/01/12 17:33:19;;;;;;;36.47;19.33;;;0.80;1.00;;;;;;6152486;23;20189;-90
2024/01/12 17:36:08;;;;;;;37.20;18.85;;;0.10;1.00;;;;;;6146546;23;20205;-90
2024/01/12 17:38:35;;;;;;;40.20;18.65;;;0.10;1.00;;;;;;6139128;23;20201;-89
2024/01/12 17:41:03;;;;;;;42.08;21.45;;;0.10;1.00;;;;;;6152290;23;20165;-89
2024/01/12 17:43:35;;;;;;;31.75;17.65;;;0.70;1.00;;;;;;6154832;23;20162;-88
2024/01/12 17:46:10;;;;;;;42.60;20.17;;;0.20;1.00;;;;;;6152908;23;20169;-90
2024/01/12 17:48:37;;;;;;;42.25;20.17;;;0.20;1.00;;;;;;6154024;23;20198;-90
2024/01/12 17:51:20;;;;;;;40.63;19.42;;;0.30;1.00;;;;;;6152577;23;20165;-90
2024/01/12 17:54:19;;;;;;;;;;;;;;;;;;;;;
2024/01/12 17:56:49;;;;;;;44.40;20.88;;;0.30;1.00;;;;;;6134054;23;20187;-89
2024/01/12 17:59:20;;;;;;;41.13;19.25;;;0.60;1.00;;;;;;6132820;23;20252;-89
2024/01/12 18:02:00;;;;;;;46.58;21.63;;;0.30;1.00;;;;;;6132536;23;20165;-89
2024/01/12 18:04:31;;;;;;;43.58;20.25;;;0.70;1.00;;;;;;6133495;23;20173;-89
2024/01/12 18:07:03;;;;;;;42.53;22.13;;;0.40;1.00;;;;;;6132580;23;20184;-88
2024/01/12 18:09:39;;;;;;;52.70;23.05;;;0.40;1.00;;;;;;6132079;23;20651;-89